Terminal Aerodrome Forecast
Issued by NWS

Home | Current Version | Previous Version | Text Only | Print | Product List | Glossary On
Versions: 1 2 3 4 5 6 7 8 9 10 11 12 13 14
000
FTUS46 KSTO 231739
TAFRBL
TAF
KRBL 231739Z 2318/2418 36010KT P6SM -RA OVC080
      TEMPO 2319/2323 4SM -RA OVC030
     FM232300 18007KT 5SM -RA OVC030
     FM240500 VRB03KT P6SM VCSH OVC060 PROB30 2406/2407 6SM -RA
      OVC100
     FM241200 19004KT P6SM BKN100
     FM241400 20005KT P6SM BKN250=

USA.gov is the U.S. government's official web portal to all federal, state and local government web resources and services.